createdAt,value
2023-04-15T00:01:14.630Z,88.88
2023-04-15T00:03:42.314Z,89.43
2023-04-15T00:06:12.036Z,90.08
2023-04-15T00:08:39.474Z,90.53
2023-04-15T00:11:07.364Z,90.89
2023-04-15T00:13:34.826Z,90.87
2023-04-15T00:16:02.822Z,91.00
2023-04-15T00:18:30.221Z,90.89
2023-04-15T00:20:58.043Z,90.74
2023-04-15T00:23:27.550Z,90.95
2023-04-15T00:25:55.387Z,90.15
2023-04-15T00:28:22.650Z,90.14
2023-04-15T00:30:50.924Z,89.86
2023-04-15T00:33:18.410Z,90.12
2023-04-15T00:35:46.182Z,90.85
2023-04-15T00:38:13.560Z,91.60
2023-04-15T00:40:43.639Z,91.38
2023-04-15T00:43:11.040Z,91.18
2023-04-15T00:45:39.029Z,91.10
2023-04-15T00:48:06.557Z,91.47
2023-04-15T00:50:34.324Z,91.28
2023-04-15T00:53:01.702Z,91.17
2023-04-15T00:55:29.428Z,91.45
2023-04-15T00:57:58.515Z,90.95
2023-04-15T01:00:26.619Z,91.17
2023-04-15T01:02:54.242Z,90.77
2023-04-15T01:05:22.349Z,91.44
2023-04-15T01:07:49.888Z,90.85
2023-04-15T01:10:17.842Z,90.21
2023-04-15T01:12:45.605Z,89.71
2023-04-15T01:15:15.465Z,90.29
2023-04-15T01:17:42.985Z,90.96
2023-04-15T01:20:11.033Z,90.54
2023-04-15T01:22:38.447Z,90.48
2023-04-15T01:25:10.104Z,89.94
2023-04-15T01:27:41.826Z,90.36
2023-04-15T01:30:10.653Z,90.83
2023-04-15T01:32:38.368Z,90.56
2023-04-15T01:35:07.111Z,90.34
2023-04-15T01:37:34.662Z,90.32
2023-04-15T01:40:02.589Z,89.62
2023-04-15T01:42:29.981Z,89.39
2023-04-15T01:44:59.256Z,89.66
2023-04-15T01:47:26.737Z,89.75
2023-04-15T01:49:54.621Z,89.42
2023-04-15T01:52:21.874Z,89.82
2023-04-15T01:54:49.856Z,89.10
2023-04-15T01:57:17.275Z,89.87
2023-04-15T01:59:45.096Z,90.19
2023-04-15T02:02:14.035Z,90.31
2023-04-15T02:04:42.080Z,90.50
2023-04-15T02:07:09.440Z,90.20
2023-04-15T02:09:37.239Z,90.62
2023-04-15T02:12:04.790Z,90.07
2023-04-15T02:14:32.564Z,89.49
2023-04-15T02:16:59.910Z,90.15
2023-04-15T02:19:29.706Z,90.36
2023-04-15T02:21:57.071Z,89.55
2023-04-15T02:24:24.795Z,90.10
2023-04-15T02:26:52.317Z,89.90
2023-04-15T02:29:20.150Z,90.41
2023-04-15T02:31:47.692Z,90.60
2023-04-15T02:34:15.681Z,90.80
2023-04-15T02:36:44.477Z,90.93
2023-04-15T02:39:12.185Z,91.04
2023-04-15T02:41:39.509Z,91.21
2023-04-15T02:44:07.352Z,90.83
2023-04-15T02:46:35.045Z,90.72
2023-04-15T02:49:03.024Z,90.52
2023-04-15T02:51:31.089Z,91.42
2023-04-15T02:54:00.390Z,90.95
2023-04-15T02:56:27.844Z,91.39
2023-04-15T02:58:55.669Z,91.35
2023-04-15T03:01:23.049Z,91.54
2023-04-15T03:03:51.071Z,91.45
2023-04-15T03:06:18.789Z,91.57
2023-04-15T03:08:46.643Z,92.06
2023-04-15T03:11:15.506Z,92.26
2023-04-15T03:13:42.826Z,91.67
2023-04-15T03:16:11.291Z,91.62
2023-04-15T03:18:41.311Z,91.94
2023-04-15T03:21:11.663Z,91.71
2023-04-15T03:23:39.347Z,92.59
2023-04-15T03:26:07.197Z,93.19
2023-04-15T03:28:35.983Z,93.34
2023-04-15T03:31:03.775Z,93.19
2023-04-15T03:33:31.189Z,92.67
2023-04-15T03:35:58.990Z,92.16
2023-04-15T03:38:26.358Z,91.69
2023-04-15T03:40:54.235Z,91.33
2023-04-15T03:43:21.623Z,91.47
2023-04-15T03:45:51.157Z,91.68
2023-04-15T03:48:18.824Z,90.79
2023-04-15T03:50:46.830Z,91.41
2023-04-15T03:53:14.380Z,91.35
2023-04-15T03:55:42.557Z,91.37
2023-04-15T03:58:09.959Z,91.29
2023-04-15T04:00:38.034Z,90.87
2023-04-15T04:03:07.054Z,90.54
2023-04-15T04:05:35.107Z,89.71
2023-04-15T04:08:02.506Z,88.96
2023-04-15T04:10:30.389Z,87.89
2023-04-15T04:12:58.279Z,86.65
2023-04-15T04:15:29.175Z,85.42
2023-04-15T04:17:56.710Z,84.72
2023-04-15T04:20:26.346Z,84.23
2023-04-15T04:22:53.754Z,84.96
2023-04-15T04:25:22.000Z,85.25
2023-04-15T04:27:49.410Z,85.61
2023-04-15T04:30:17.622Z,85.50
2023-04-15T04:32:45.305Z,85.56
2023-04-15T04:35:13.064Z,84.80
2023-04-15T04:37:42.114Z,85.67
2023-04-15T04:40:10.906Z,86.00
2023-04-15T04:42:39.967Z,86.21
2023-04-15T04:45:08.788Z,86.51
2023-04-15T04:47:36.297Z,86.25
2023-04-15T04:50:04.661Z,85.70
2023-04-15T04:52:35.180Z,85.43
2023-04-15T04:55:05.361Z,85.31
2023-04-15T04:57:32.955Z,85.06
2023-04-15T05:00:01.346Z,84.83
2023-04-15T05:02:28.744Z,84.56
2023-04-15T05:04:56.885Z,84.31
2023-04-15T05:07:24.565Z,83.65
2023-04-15T05:09:52.427Z,81.93
2023-04-15T05:12:21.310Z,82.62
2023-04-15T05:14:51.780Z,82.32
2023-04-15T05:17:19.333Z,79.62
2023-04-15T05:19:47.149Z,80.42
2023-04-15T05:22:14.637Z,79.94
2023-04-15T05:24:42.621Z,80.31
2023-04-15T05:27:10.010Z,78.69
2023-04-15T05:29:39.103Z,79.01
2023-04-15T05:32:06.948Z,78.85
2023-04-15T05:34:35.502Z,78.20
2023-04-15T05:37:04.709Z,78.76
2023-04-15T05:39:32.548Z,78.53
2023-04-15T05:42:00.159Z,77.25
2023-04-15T05:44:28.149Z,77.00
2023-04-15T05:46:58.675Z,75.42
2023-04-15T05:49:26.950Z,78.51
2023-04-15T05:51:54.380Z,78.60
2023-04-15T05:54:22.404Z,78.24
2023-04-15T05:56:53.009Z,79.62
2023-04-15T05:59:21.299Z,80.10
2023-04-15T06:01:48.793Z,79.97
2023-04-15T06:04:18.331Z,79.85
2023-04-15T06:06:45.791Z,79.58
2023-04-15T06:09:13.816Z,78.00
2023-04-15T06:11:41.296Z,76.87
2023-04-15T06:14:09.553Z,77.22
2023-04-15T06:16:37.281Z,75.52
2023-04-15T06:19:05.089Z,75.00
2023-04-15T06:21:34.178Z,74.48
2023-04-15T06:24:02.568Z,75.76
2023-04-15T06:26:30.096Z,76.59
2023-04-15T06:28:58.446Z,74.93
2023-04-15T06:31:25.811Z,76.06
2023-04-15T06:33:53.732Z,76.48
2023-04-15T06:36:21.241Z,74.68
2023-04-15T06:38:50.973Z,74.85
2023-04-15T06:41:18.605Z,73.98
2023-04-15T06:43:49.618Z,74.51
2023-04-15T06:46:17.181Z,72.86
2023-04-15T06:48:45.295Z,75.18
2023-04-15T06:51:15.952Z,73.75
2023-04-15T06:53:43.942Z,72.20
2023-04-15T06:56:13.067Z,74.58
2023-04-15T06:58:41.133Z,71.83
2023-04-15T07:01:08.564Z,72.88
2023-04-15T07:03:36.890Z,72.41
2023-04-15T07:06:04.686Z,71.95
2023-04-15T07:08:32.603Z,73.81
2023-04-15T07:11:00.212Z,72.88
2023-04-15T07:13:32.240Z,72.12
2023-04-15T07:15:59.769Z,71.36
2023-04-15T07:18:27.598Z,68.69
2023-04-15T07:20:55.269Z,70.40
2023-04-15T07:23:23.248Z,68.86
2023-04-15T07:25:50.838Z,70.29
2023-04-15T07:28:18.804Z,68.37
2023-04-15T07:30:47.822Z,70.19
2023-04-15T07:33:15.947Z,66.84
2023-04-15T07:35:43.373Z,65.26
2023-04-15T07:38:11.378Z,62.30
2023-04-15T07:40:38.935Z,64.85
2023-04-15T07:43:06.815Z,62.39
2023-04-15T07:45:34.314Z,63.04
2023-04-15T07:48:04.114Z,64.14
2023-04-15T07:50:31.675Z,64.53
2023-04-15T07:52:59.834Z,65.86
2023-04-15T07:55:28.289Z,65.54
2023-04-15T07:57:56.410Z,63.85
2023-04-15T08:00:24.004Z,66.53
2023-04-15T08:02:52.624Z,62.71
2023-04-15T08:05:21.829Z,64.90
2023-04-15T08:07:49.891Z,62.46
2023-04-15T08:10:17.864Z,63.00
2023-04-15T08:12:45.937Z,63.47
2023-04-15T08:15:13.448Z,64.72
2023-04-15T08:17:41.367Z,62.39
2023-04-15T08:20:09.109Z,63.41
2023-04-15T08:22:38.848Z,63.70
2023-04-15T08:25:06.632Z,63.31
2023-04-15T08:27:34.620Z,62.90
2023-04-15T08:30:04.688Z,62.96
2023-04-15T08:32:33.058Z,61.43
2023-04-15T08:35:02.858Z,62.23
2023-04-15T08:37:31.582Z,61.73
2023-04-15T08:40:03.894Z,64.19
2023-04-15T08:42:36.869Z,65.21
2023-04-15T08:45:05.731Z,61.65
2023-04-15T08:47:34.998Z,59.66
2023-04-15T08:50:04.405Z,58.47
2023-04-15T08:52:32.710Z,58.50
2023-04-15T08:55:02.259Z,59.25
2023-04-15T08:57:31.858Z,59.08
2023-04-15T08:59:59.499Z,57.82
2023-04-15T09:02:27.796Z,56.91
2023-04-15T09:04:56.984Z,57.30
2023-04-15T09:07:25.502Z,60.34
2023-04-15T09:09:52.905Z,59.78
2023-04-15T09:12:21.076Z,59.28
2023-04-15T09:14:50.890Z,58.63
2023-04-15T09:17:20.270Z,56.49
2023-04-15T09:19:47.938Z,56.62
2023-04-15T09:22:15.870Z,58.29
2023-04-15T09:24:43.139Z,56.36
2023-04-15T09:27:11.596Z,57.07
2023-04-15T09:29:41.860Z,55.64
2023-04-15T09:32:15.539Z,55.83
2023-04-15T09:34:43.559Z,56.31
2023-04-15T09:37:11.642Z,57.45
2023-04-15T09:39:46.829Z,53.54
2023-04-15T09:42:14.732Z,53.40
2023-04-15T09:44:42.236Z,56.41
2023-04-15T09:47:28.253Z,56.35
2023-04-15T09:49:56.489Z,53.40
2023-04-15T09:52:24.556Z,53.86
2023-04-15T09:54:53.722Z,51.71
2023-04-15T09:57:21.710Z,54.40
2023-04-15T09:59:49.006Z,55.92
2023-04-15T10:02:20.858Z,56.41
2023-04-15T10:04:49.133Z,54.04
2023-04-15T10:07:17.853Z,54.38
2023-04-15T10:09:49.266Z,54.89
2023-04-15T10:12:18.133Z,54.98
2023-04-15T10:14:51.047Z,56.82
2023-04-15T10:17:22.604Z,52.93
2023-04-15T10:19:53.469Z,55.04
2023-04-15T10:22:22.581Z,55.08
2023-04-15T10:24:51.580Z,53.83
2023-04-15T10:27:22.490Z,55.96
2023-04-15T10:29:53.251Z,56.57
2023-04-15T10:32:24.238Z,54.99
2023-04-15T10:34:54.420Z,53.83
2023-04-15T10:37:33.285Z,54.08
2023-04-15T10:40:00.886Z,55.42
2023-04-15T10:42:35.008Z,51.52
2023-04-15T10:45:16.176Z,53.15
2023-04-15T10:47:46.148Z,53.29
2023-04-15T10:50:13.663Z,52.98
2023-04-15T10:52:41.700Z,53.94
2023-04-15T10:55:19.545Z,55.33
2023-04-15T10:57:47.440Z,52.82
2023-04-15T11:00:17.982Z,53.09
2023-04-15T11:02:54.798Z,53.45
2023-04-15T11:05:24.007Z,53.19
2023-04-15T11:07:54.896Z,51.49
2023-04-15T11:10:53.166Z,53.61
2023-04-15T11:13:29.725Z,53.10
2023-04-15T11:16:01.501Z,53.10
2023-04-15T11:18:34.894Z,56.49
2023-04-15T11:21:04.982Z,56.60
2023-04-15T11:23:36.400Z,52.35
2023-04-15T11:26:06.533Z,53.73
2023-04-15T11:28:34.286Z,51.90
2023-04-15T11:31:07.575Z,50.39
2023-04-15T11:33:37.050Z,52.23
2023-04-15T11:36:05.088Z,52.53
2023-04-15T11:38:34.502Z,51.91
2023-04-15T11:41:04.527Z,48.06
2023-04-15T11:43:34.818Z,52.31
2023-04-15T11:46:03.404Z,50.45
2023-04-15T11:48:33.201Z,49.94
2023-04-15T11:51:04.205Z,45.58
2023-04-15T11:53:40.047Z,49.12
2023-04-15T11:56:09.438Z,49.65
2023-04-15T11:58:38.033Z,49.54
2023-04-15T12:01:06.703Z,52.18
2023-04-15T12:03:39.245Z,48.66
2023-04-15T12:06:13.538Z,48.33
2023-04-15T12:08:58.467Z,46.18
2023-04-15T12:11:34.463Z,46.57
2023-04-15T12:14:06.743Z,46.11
2023-04-15T12:16:37.203Z,43.99
2023-04-15T12:19:18.059Z,46.51
2023-04-15T12:21:48.440Z,43.69
2023-04-15T12:24:21.531Z,44.30
2023-04-15T12:26:50.292Z,44.57
2023-04-15T12:29:18.520Z,42.89
2023-04-15T12:31:51.116Z,44.42
2023-04-15T12:34:25.971Z,45.00
2023-04-15T12:36:55.355Z,44.75
2023-04-15T12:39:24.155Z,43.02
2023-04-15T12:41:51.634Z,44.65
2023-04-15T12:44:19.817Z,42.77
2023-04-15T12:46:47.334Z,48.10
2023-04-15T12:49:15.060Z,45.44
2023-04-15T12:51:42.484Z,43.19
2023-04-15T12:54:11.747Z,44.28
2023-04-15T12:56:39.174Z,46.04
2023-04-15T12:59:07.154Z,46.82
2023-04-15T13:01:34.511Z,47.05
2023-04-15T13:04:02.434Z,47.23
2023-04-15T13:06:32.543Z,46.11
2023-04-15T13:09:00.417Z,46.68
2023-04-15T13:11:29.958Z,48.42
2023-04-15T13:13:58.213Z,46.28
2023-04-15T13:16:25.832Z,46.27
2023-04-15T13:18:53.563Z,44.89
2023-04-15T13:21:21.325Z,45.20
2023-04-15T13:23:49.489Z,44.81
2023-04-15T13:26:17.271Z,50.69
2023-04-15T13:28:46.675Z,48.72
2023-04-15T13:31:14.230Z,49.03
2023-04-15T13:33:41.982Z,47.31
2023-04-15T13:36:09.946Z,48.45
2023-04-15T13:38:37.645Z,46.00
2023-04-15T13:41:08.098Z,45.15
2023-04-15T13:43:36.016Z,46.78
2023-04-15T13:46:05.003Z,43.95
2023-04-15T13:48:33.277Z,44.63
2023-04-15T13:51:03.046Z,44.08
2023-04-15T13:53:38.187Z,44.07
2023-04-15T13:56:07.550Z,42.90
2023-04-15T13:58:36.061Z,43.33
2023-04-15T14:01:06.303Z,41.45
2023-04-15T14:03:35.223Z,40.49
2023-04-15T14:06:02.903Z,40.87
2023-04-15T14:08:30.853Z,40.86
2023-04-15T14:10:58.362Z,38.72
2023-04-15T14:13:26.742Z,39.45
2023-04-15T14:15:54.457Z,37.19
2023-04-15T14:18:23.878Z,38.77
2023-04-15T14:20:51.423Z,37.74
2023-04-15T14:23:19.368Z,38.47
2023-04-15T14:25:48.382Z,40.86
2023-04-15T14:28:16.585Z,37.77
2023-04-15T14:30:44.095Z,37.66
2023-04-15T14:33:12.344Z,37.55
2023-04-15T14:35:41.425Z,37.81
2023-04-15T14:38:09.369Z,38.38
2023-04-15T14:40:36.845Z,38.02
2023-04-15T14:43:04.665Z,37.56
2023-04-15T14:45:32.075Z,37.55
2023-04-15T14:48:00.396Z,36.86
2023-04-15T14:50:28.221Z,36.90
2023-04-15T14:52:57.535Z,35.79
2023-04-15T14:55:25.189Z,36.03
2023-04-15T14:57:53.062Z,38.64
2023-04-15T15:00:20.549Z,38.80
2023-04-15T15:02:48.441Z,37.69
2023-04-15T15:05:16.470Z,37.45
2023-04-15T15:07:44.636Z,36.22
2023-04-15T15:10:13.773Z,38.63
2023-04-15T15:12:41.513Z,39.63
2023-04-15T15:15:19.595Z,40.35
2023-04-15T15:17:56.295Z,40.85
2023-04-15T15:20:24.111Z,42.53
2023-04-15T15:22:52.258Z,41.63
2023-04-15T15:25:21.143Z,41.25
2023-04-15T15:27:49.067Z,43.08
2023-04-15T15:30:16.581Z,42.13
2023-04-15T15:32:44.541Z,41.52
2023-04-15T15:35:11.979Z,40.54
2023-04-15T15:37:40.827Z,41.86
2023-04-15T15:40:09.619Z,41.96
2023-04-15T15:42:39.008Z,42.18
2023-04-15T15:45:07.251Z,42.10
2023-04-15T15:47:35.813Z,42.52
2023-04-15T15:50:05.569Z,42.49
2023-04-15T15:52:34.087Z,42.71
2023-04-15T15:55:01.683Z,42.38
2023-04-15T15:57:29.441Z,42.23
2023-04-15T16:00:10.197Z,42.83
2023-04-15T16:05:10.293Z,43.40
2023-04-15T16:07:38.075Z,43.35
2023-04-15T16:10:06.574Z,44.73
2023-04-15T16:12:35.032Z,44.37
2023-04-15T16:15:04.497Z,45.17
2023-04-15T16:17:33.207Z,45.50
2023-04-15T16:20:01.511Z,46.19
2023-04-15T16:22:29.681Z,44.91
2023-04-15T16:24:57.246Z,45.97
2023-04-15T16:27:24.949Z,46.27
2023-04-15T16:29:52.310Z,46.34
2023-04-15T16:32:21.866Z,46.40
2023-04-15T16:34:49.350Z,47.13
2023-04-15T16:37:17.426Z,48.60
2023-04-15T16:39:44.739Z,47.83
2023-04-15T16:42:12.644Z,47.82
2023-04-15T16:44:40.001Z,48.48
2023-04-15T16:47:08.311Z,48.69
2023-04-15T16:49:37.076Z,48.82
2023-04-15T16:52:04.832Z,48.61
2023-04-15T16:54:32.253Z,49.51
2023-04-15T16:57:00.133Z,49.74
2023-04-15T16:59:27.575Z,49.51
2023-04-15T17:01:55.451Z,49.49
2023-04-15T17:04:23.264Z,49.94
2023-04-15T17:06:52.640Z,50.34
2023-04-15T17:09:20.248Z,51.08
2023-04-15T17:11:48.656Z,51.45
2023-04-15T17:14:16.223Z,51.37
2023-04-15T17:16:44.222Z,51.65
2023-04-15T17:19:11.853Z,51.06
2023-04-15T17:21:39.765Z,51.68
2023-04-15T17:24:08.484Z,51.92
2023-04-15T17:26:36.335Z,52.96
2023-04-15T17:29:04.217Z,52.43
2023-04-15T17:31:32.281Z,52.54
2023-04-15T17:34:09.119Z,52.49
2023-04-15T17:36:38.073Z,51.88
2023-04-15T17:39:05.935Z,52.47
2023-04-15T17:41:35.458Z,52.74
2023-04-15T17:46:30.954Z,53.34
2023-04-15T17:48:58.358Z,53.78
2023-04-15T17:51:26.124Z,54.35
2023-04-15T17:53:53.461Z,55.02
2023-04-15T17:56:21.314Z,54.51
2023-04-15T17:58:50.232Z,54.63
2023-04-15T18:01:18.017Z,54.15
2023-04-15T18:03:45.451Z,54.08
2023-04-15T18:06:16.108Z,54.02
2023-04-15T18:08:43.605Z,53.76
2023-04-15T18:11:11.679Z,55.79
2023-04-15T18:13:39.040Z,53.97
2023-04-15T18:16:08.574Z,53.65
2023-04-15T18:18:38.698Z,53.12
2023-04-15T18:21:06.588Z,54.74
2023-04-15T18:23:34.155Z,56.52
2023-04-15T18:26:01.960Z,57.71
2023-04-15T18:28:30.686Z,59.46
2023-04-15T18:30:58.527Z,59.66
2023-04-15T18:33:27.566Z,59.97
2023-04-15T18:35:55.738Z,60.70
2023-04-15T18:38:23.798Z,61.17
2023-04-15T18:40:52.240Z,60.64
2023-04-15T18:43:19.773Z,59.80
2023-04-15T18:45:47.696Z,59.40
2023-04-15T18:48:15.162Z,58.98
2023-04-15T18:50:44.552Z,59.31
2023-04-15T18:53:12.050Z,60.12
2023-04-15T18:55:40.473Z,59.56
2023-04-15T18:58:09.179Z,59.49
2023-04-15T19:00:37.225Z,59.57
2023-04-15T19:03:04.847Z,59.77
2023-04-15T19:05:32.998Z,60.20
2023-04-15T19:08:02.094Z,60.92
2023-04-15T19:10:30.081Z,61.09
2023-04-15T19:12:57.549Z,61.64
2023-04-15T19:15:26.279Z,62.49
2023-04-15T19:17:53.680Z,62.36
2023-04-15T19:20:23.014Z,62.50
2023-04-15T19:22:50.468Z,62.45
2023-04-15T19:25:20.388Z,62.38
2023-04-15T19:27:47.947Z,62.21
2023-04-15T19:30:15.854Z,62.49
2023-04-15T19:32:43.292Z,62.66
2023-04-15T19:35:11.732Z,62.83
2023-04-15T19:37:39.180Z,64.00
2023-04-15T19:40:08.419Z,64.24
2023-04-15T19:42:37.358Z,64.33
2023-04-15T19:45:06.150Z,64.56
2023-04-15T19:47:34.211Z,65.02
2023-04-15T19:50:02.296Z,65.24
2023-04-15T19:52:29.789Z,65.86
2023-04-15T19:54:57.652Z,66.01
2023-04-15T19:57:25.216Z,66.35
2023-04-15T19:59:54.659Z,67.15
2023-04-15T20:02:22.269Z,66.93
2023-04-15T20:04:50.377Z,66.76
2023-04-15T20:07:17.708Z,66.93
2023-04-15T20:09:46.976Z,67.19
2023-04-15T20:12:50.221Z,67.67
2023-04-15T20:15:07.778Z,67.39
2023-04-15T20:17:36.197Z,66.95
2023-04-15T20:20:04.500Z,66.36
2023-04-15T20:22:32.398Z,66.29
2023-04-15T20:25:01.225Z,66.26
2023-04-15T20:27:28.858Z,65.76
2023-04-15T20:29:56.641Z,65.64
2023-04-15T20:32:25.798Z,66.50
2023-04-15T20:34:53.724Z,66.96
2023-04-15T20:37:21.184Z,67.33
2023-04-15T20:39:49.205Z,67.94
2023-04-15T20:42:17.837Z,67.69
2023-04-15T20:44:45.688Z,67.93
2023-04-15T20:47:13.289Z,68.54
2023-04-15T20:49:42.869Z,69.26
2023-04-15T20:52:10.512Z,69.68
2023-04-15T20:54:38.617Z,71.26
2023-04-15T20:57:06.091Z,71.11
2023-04-15T20:59:33.782Z,71.07
2023-04-15T21:02:01.527Z,71.23
2023-04-15T21:04:29.412Z,70.13
2023-04-15T21:06:58.307Z,70.06
2023-04-15T21:09:25.988Z,70.61
2023-04-15T21:12:01.090Z,71.18
2023-04-15T21:14:29.911Z,71.63
2023-04-15T21:16:57.744Z,71.01
2023-04-15T21:19:25.567Z,70.57
2023-04-15T21:21:53.105Z,70.45
2023-04-15T21:24:22.457Z,70.13
2023-04-15T21:26:49.993Z,69.87
2023-04-15T21:29:17.842Z,69.73
2023-04-15T21:31:45.399Z,69.39
2023-04-15T21:34:13.335Z,69.67
2023-04-15T21:36:40.690Z,69.06
2023-04-15T21:39:08.555Z,69.30
2023-04-15T21:41:37.639Z,70.66
2023-04-15T21:44:05.806Z,70.90
2023-04-15T21:46:35.517Z,70.51
2023-04-15T21:49:04.287Z,71.11
2023-04-15T21:51:31.936Z,71.03
2023-04-15T21:53:59.881Z,71.56
2023-04-15T21:56:27.179Z,71.87
2023-04-15T21:58:57.500Z,71.33
2023-04-15T22:01:25.101Z,71.23
2023-04-15T22:03:54.963Z,71.02
2023-04-15T22:06:22.671Z,72.25
2023-04-15T22:08:56.850Z,72.80
2023-04-15T22:11:25.569Z,72.22
2023-04-15T22:13:53.250Z,72.62
2023-04-15T22:16:22.069Z,71.98
2023-04-15T22:18:50.046Z,71.99
2023-04-15T22:21:17.411Z,72.17
2023-04-15T22:23:46.666Z,71.42
2023-04-15T22:26:15.107Z,71.41
2023-04-15T22:28:43.015Z,72.33
2023-04-15T22:31:10.453Z,73.63
2023-04-15T22:33:39.746Z,75.61
2023-04-15T22:36:07.168Z,74.63
2023-04-15T22:38:35.146Z,72.65
2023-04-15T22:41:02.515Z,70.53
2023-04-15T22:43:30.252Z,69.36
2023-04-15T22:45:57.602Z,71.35
2023-04-15T22:48:25.510Z,71.53
2023-04-15T22:50:54.630Z,72.79
2023-04-15T22:53:22.344Z,74.02
2023-04-15T22:55:49.818Z,76.14
2023-04-15T22:58:17.874Z,76.96
2023-04-15T23:00:45.373Z,75.65
2023-04-15T23:03:13.299Z,74.93
2023-04-15T23:05:41.110Z,75.36
2023-04-15T23:08:10.414Z,76.30
2023-04-15T23:10:37.758Z,76.22
2023-04-15T23:13:05.655Z,75.84
2023-04-15T23:15:33.044Z,75.37
2023-04-15T23:18:00.787Z,74.86
2023-04-15T23:20:28.254Z,73.32
2023-04-15T23:22:56.109Z,73.79
2023-04-15T23:25:25.046Z,73.54
2023-04-15T23:27:52.739Z,74.23
2023-04-15T23:30:20.152Z,73.80
2023-04-15T23:32:48.011Z,74.43
2023-04-15T23:35:16.145Z,75.32
2023-04-15T23:37:44.445Z,74.39
2023-04-15T23:40:12.908Z,75.13
2023-04-15T23:42:42.215Z,75.08
2023-04-15T23:45:10.523Z,75.65
2023-04-15T23:47:38.618Z,74.63
2023-04-15T23:50:07.360Z,75.35
2023-04-15T23:52:35.353Z,74.32
2023-04-15T23:55:02.753Z,73.74
2023-04-15T23:57:30.509Z,71.88
2023-04-15T23:59:59.345Z,71.84
